sensor_id;sensor_type;location;lat;lon;timestamp;temperature;humidity
63371;DHT22;49504;48.336;14.472;2023-08-01T00:00:39;26.60;51.00
63371;DHT22;49504;48.336;14.472;2023-08-01T00:04:02;26.70;51.10
63371;DHT22;49504;48.336;14.472;2023-08-01T00:07:23;26.60;50.90
63371;DHT22;49504;48.336;14.472;2023-08-01T00:10:45;26.60;50.90
63371;DHT22;49504;48.336;14.472;2023-08-01T00:14:06;26.60;50.90
63371;DHT22;49504;48.336;14.472;2023-08-01T00:17:27;26.60;50.80
63371;DHT22;49504;48.336;14.472;2023-08-01T00:20:52;26.60;50.80
63371;DHT22;49504;48.336;14.472;2023-08-01T00:24:13;26.60;50.80
63371;DHT22;49504;48.336;14.472;2023-08-01T00:27:34;26.60;50.80
63371;DHT22;49504;48.336;14.472;2023-08-01T00:31:02;26.60;50.80
63371;DHT22;49504;48.336;14.472;2023-08-01T00:34:24;26.60;50.80
63371;DHT22;49504;48.336;14.472;2023-08-01T00:37:46;26.60;50.70
63371;DHT22;49504;48.336;14.472;2023-08-01T00:41:07;26.50;50.60
63371;DHT22;49504;48.336;14.472;2023-08-01T00:45:11;26.60;50.40
63371;DHT22;49504;48.336;14.472;2023-08-01T00:48:32;26.60;50.60
63371;DHT22;49504;48.336;14.472;2023-08-01T00:51:53;26.60;50.60
63371;DHT22;49504;48.336;14.472;2023-08-01T00:55:14;26.60;50.60
63371;DHT22;49504;48.336;14.472;2023-08-01T00:58:36;26.60;50.60
63371;DHT22;49504;48.336;14.472;2023-08-01T01:01:59;26.60;50.60
63371;DHT22;49504;48.336;14.472;2023-08-01T01:05:21;26.60;50.60
63371;DHT22;49504;48.336;14.472;2023-08-01T01:08:44;26.60;50.60
63371;DHT22;49504;48.336;14.472;2023-08-01T01:12:06;26.50;50.50
63371;DHT22;49504;48.336;14.472;2023-08-01T01:15:28;26.60;50.60
63371;DHT22;49504;48.336;14.472;2023-08-01T01:18:50;26.60;50.60
63371;DHT22;49504;48.336;14.472;2023-08-01T01:22:13;26.50;50.50
63371;DHT22;49504;48.336;14.472;2023-08-01T01:25:36;26.50;50.50
63371;DHT22;49504;48.336;14.472;2023-08-01T01:28:58;26.50;50.50
63371;DHT22;49504;48.336;14.472;2023-08-01T01:32:20;26.50;50.50
63371;DHT22;49504;48.336;14.472;2023-08-01T01:35:41;26.50;50.40
63371;DHT22;49504;48.336;14.472;2023-08-01T01:42:19;26.50;50.00
63371;DHT22;49504;48.336;14.472;2023-08-01T01:45:40;26.50;50.40
63371;DHT22;49504;48.336;14.472;2023-08-01T01:49:02;26.50;50.50
63371;DHT22;49504;48.336;14.472;2023-08-01T01:52:23;26.50;50.50
63371;DHT22;49504;48.336;14.472;2023-08-01T01:55:44;26.50;50.50
63371;DHT22;49504;48.336;14.472;2023-08-01T01:59:07;26.50;50.50
63371;DHT22;49504;48.336;14.472;2023-08-01T02:02:28;26.50;50.40
63371;DHT22;49504;48.336;14.472;2023-08-01T02:05:49;26.50;50.50
63371;DHT22;49504;48.336;14.472;2023-08-01T02:09:10;26.50;50.50
63371;DHT22;49504;48.336;14.472;2023-08-01T02:12:31;26.50;50.40
63371;DHT22;49504;48.336;14.472;2023-08-01T02:15:54;26.50;50.40
63371;DHT22;49504;48.336;14.472;2023-08-01T02:19:15;26.50;50.40
63371;DHT22;49504;48.336;14.472;2023-08-01T02:22:36;26.50;50.50
63371;DHT22;49504;48.336;14.472;2023-08-01T02:25:57;26.50;50.50
63371;DHT22;49504;48.336;14.472;2023-08-01T02:29:18;26.50;50.50
63371;DHT22;49504;48.336;14.472;2023-08-01T02:32:40;26.50;50.50
63371;DHT22;49504;48.336;14.472;2023-08-01T02:36:34;26.50;50.00
63371;DHT22;49504;48.336;14.472;2023-08-01T02:39:55;26.50;50.50
63371;DHT22;49504;48.336;14.472;2023-08-01T02:43:16;26.50;50.50
63371;DHT22;49504;48.336;14.472;2023-08-01T02:46:37;26.50;50.50
63371;DHT22;49504;48.336;14.472;2023-08-01T02:49:58;26.50;50.60
63371;DHT22;49504;48.336;14.472;2023-08-01T02:53:20;26.50;50.50
63371;DHT22;49504;48.336;14.472;2023-08-01T02:56:41;26.50;50.50
63371;DHT22;49504;48.336;14.472;2023-08-01T03:00:03;26.50;50.50
63371;DHT22;49504;48.336;14.472;2023-08-01T03:03:25;26.40;50.50
63371;DHT22;49504;48.336;14.472;2023-08-01T03:06:46;26.40;50.50
63371;DHT22;49504;48.336;14.472;2023-08-01T03:10:09;26.40;50.60
63371;DHT22;49504;48.336;14.472;2023-08-01T03:13:30;26.40;50.60
63371;DHT22;49504;48.336;14.472;2023-08-01T03:16:51;26.40;50.70
63371;DHT22;49504;48.336;14.472;2023-08-01T03:20:12;26.40;50.70
63371;DHT22;49504;48.336;14.472;2023-08-01T03:23:33;26.40;51.10
63371;DHT22;49504;48.336;14.472;2023-08-01T03:26:56;26.40;50.90
63371;DHT22;49504;48.336;14.472;2023-08-01T03:30:17;26.40;50.80
63371;DHT22;49504;48.336;14.472;2023-08-01T03:33:38;26.40;50.70
63371;DHT22;49504;48.336;14.472;2023-08-01T03:37:00;26.40;50.70
63371;DHT22;49504;48.336;14.472;2023-08-01T03:40:21;26.40;50.70
63371;DHT22;49504;48.336;14.472;2023-08-01T03:43:43;26.40;50.70
63371;DHT22;49504;48.336;14.472;2023-08-01T03:47:05;26.40;51.00
63371;DHT22;49504;48.336;14.472;2023-08-01T03:50:26;26.40;50.60
63371;DHT22;49504;48.336;14.472;2023-08-01T03:57:42;26.40;50.40
63371;DHT22;49504;48.336;14.472;2023-08-01T04:01:03;26.50;50.80
63371;DHT22;49504;48.336;14.472;2023-08-01T04:04:24;26.40;50.70
63371;DHT22;49504;48.336;14.472;2023-08-01T04:07:45;26.40;50.80
63371;DHT22;49504;48.336;14.472;2023-08-01T04:11:06;26.50;50.90
63371;DHT22;49504;48.336;14.472;2023-08-01T04:14:29;26.40;50.90
63371;DHT22;49504;48.336;14.472;2023-08-01T04:17:50;26.40;50.80
63371;DHT22;49504;48.336;14.472;2023-08-01T04:21:12;26.40;50.80
63371;DHT22;49504;48.336;14.472;2023-08-01T04:24:33;26.40;50.80
63371;DHT22;49504;48.336;14.472;2023-08-01T04:28:48;26.40;50.30
63371;DHT22;49504;48.336;14.472;2023-08-01T04:32:09;26.50;51.00
63371;DHT22;49504;48.336;14.472;2023-08-01T04:35:30;26.50;51.00
63371;DHT22;49504;48.336;14.472;2023-08-01T04:38:51;26.40;50.90
63371;DHT22;49504;48.336;14.472;2023-08-01T04:42:12;26.40;50.90
63371;DHT22;49504;48.336;14.472;2023-08-01T04:45:35;26.40;50.90
63371;DHT22;49504;48.336;14.472;2023-08-01T04:48:57;26.50;51.00
63371;DHT22;49504;48.336;14.472;2023-08-01T04:52:18;26.40;50.90
63371;DHT22;49504;48.336;14.472;2023-08-01T04:55:40;26.50;51.00
63371;DHT22;49504;48.336;14.472;2023-08-01T04:59:01;26.40;51.10
63371;DHT22;49504;48.336;14.472;2023-08-01T05:03:12;26.40;50.50
63371;DHT22;49504;48.336;14.472;2023-08-01T05:06:33;26.40;51.70
63371;DHT22;49504;48.336;14.472;2023-08-01T05:12:22;26.40;50.50
63371;DHT22;49504;48.336;14.472;2023-08-01T05:15:44;26.40;51.10
63371;DHT22;49504;48.336;14.472;2023-08-01T05:19:06;26.40;51.20
63371;DHT22;49504;48.336;14.472;2023-08-01T05:23:37;26.40;50.60
63371;DHT22;49504;48.336;14.472;2023-08-01T05:26:58;26.40;51.40
63371;DHT22;49504;48.336;14.472;2023-08-01T05:30:20;26.40;51.40
63371;DHT22;49504;48.336;14.472;2023-08-01T05:33:41;26.40;51.40
63371;DHT22;49504;48.336;14.472;2023-08-01T05:40:16;26.40;50.90
63371;DHT22;49504;48.336;14.472;2023-08-01T05:43:38;26.40;51.50
63371;DHT22;49504;48.336;14.472;2023-08-01T05:46:59;26.40;51.50
63371;DHT22;49504;48.336;14.472;2023-08-01T05:50:20;26.40;51.80
63371;DHT22;49504;48.336;14.472;2023-08-01T05:53:41;26.40;51.80
63371;DHT22;49504;48.336;14.472;2023-08-01T05:57:04;26.50;51.90
63371;DHT22;49504;48.336;14.472;2023-08-01T06:00:26;26.50;52.00
63371;DHT22;49504;48.336;14.472;2023-08-01T06:03:47;26.40;52.20
63371;DHT22;49504;48.336;14.472;2023-08-01T06:07:09;26.40;52.00
63371;DHT22;49504;48.336;14.472;2023-08-01T06:10:31;26.40;52.10
63371;DHT22;49504;48.336;14.472;2023-08-01T06:13:53;26.40;52.20
63371;DHT22;49504;48.336;14.472;2023-08-01T06:18:11;26.40;51.50
63371;DHT22;49504;48.336;14.472;2023-08-01T06:21:32;26.40;52.20
63371;DHT22;49504;48.336;14.472;2023-08-01T06:24:53;26.40;52.30
63371;DHT22;49504;48.336;14.472;2023-08-01T06:28:14;26.40;52.30
63371;DHT22;49504;48.336;14.472;2023-08-01T06:31:35;26.40;52.40
63371;DHT22;49504;48.336;14.472;2023-08-01T06:34:58;26.40;52.50
63371;DHT22;49504;48.336;14.472;2023-08-01T06:38:19;26.40;52.60
63371;DHT22;49504;48.336;14.472;2023-08-01T06:41:41;26.40;52.50
63371;DHT22;49504;48.336;14.472;2023-08-01T06:45:02;26.40;52.60
63371;DHT22;49504;48.336;14.472;2023-08-01T06:48:23;26.40;52.60
63371;DHT22;49504;48.336;14.472;2023-08-01T06:51:45;26.40;52.70
63371;DHT22;49504;48.336;14.472;2023-08-01T06:55:07;26.30;52.60
63371;DHT22;49504;48.336;14.472;2023-08-01T06:58:28;26.40;52.80
63371;DHT22;49504;48.336;14.472;2023-08-01T07:05:20;26.30;52.00
63371;DHT22;49504;48.336;14.472;2023-08-01T07:08:41;26.30;52.80
63371;DHT22;49504;48.336;14.472;2023-08-01T07:12:03;26.40;52.90
63371;DHT22;49504;48.336;14.472;2023-08-01T07:15:24;26.40;52.90
63371;DHT22;49504;48.336;14.472;2023-08-01T07:18:46;26.30;52.80
63371;DHT22;49504;48.336;14.472;2023-08-01T07:22:08;26.30;52.90
63371;DHT22;49504;48.336;14.472;2023-08-01T07:25:29;26.30;53.00
63371;DHT22;49504;48.336;14.472;2023-08-01T07:28:51;26.30;53.00
63371;DHT22;49504;48.336;14.472;2023-08-01T07:32:12;26.30;53.00
63371;DHT22;49504;48.336;14.472;2023-08-01T07:35:33;26.30;53.10
63371;DHT22;49504;48.336;14.472;2023-08-01T07:38:55;26.30;53.10
63371;DHT22;49504;48.336;14.472;2023-08-01T07:45:05;26.30;52.40
63371;DHT22;49504;48.336;14.472;2023-08-01T07:48:26;26.30;53.40
63371;DHT22;49504;48.336;14.472;2023-08-01T07:51:48;26.30;53.30
63371;DHT22;49504;48.336;14.472;2023-08-01T07:55:09;26.30;53.40
63371;DHT22;49504;48.336;14.472;2023-08-01T07:58:30;26.30;53.40
63371;DHT22;49504;48.336;14.472;2023-08-01T08:01:53;26.30;53.40
63371;DHT22;49504;48.336;14.472;2023-08-01T08:05:14;26.20;53.30
63371;DHT22;49504;48.336;14.472;2023-08-01T08:08:36;26.30;53.40
63371;DHT22;49504;48.336;14.472;2023-08-01T08:11:57;26.30;53.30
63371;DHT22;49504;48.336;14.472;2023-08-01T08:15:18;26.30;53.50
63371;DHT22;49504;48.336;14.472;2023-08-01T08:18:41;26.20;53.50
63371;DHT22;49504;48.336;14.472;2023-08-01T08:22:03;26.20;53.50
63371;DHT22;49504;48.336;14.472;2023-08-01T08:25:25;26.30;53.60
63371;DHT22;49504;48.336;14.472;2023-08-01T08:30:37;26.20;52.80
63371;DHT22;49504;48.336;14.472;2023-08-01T08:33:58;26.20;53.70
63371;DHT22;49504;48.336;14.472;2023-08-01T08:37:19;26.30;53.80
63371;DHT22;49504;48.336;14.472;2023-08-01T08:40:41;26.20;53.70
63371;DHT22;49504;48.336;14.472;2023-08-01T08:44:20;26.20;53.70
63371;DHT22;49504;48.336;14.472;2023-08-01T08:49:14;26.20;52.90
63371;DHT22;49504;48.336;14.472;2023-08-01T08:54:01;26.30;53.00
63371;DHT22;49504;48.336;14.472;2023-08-01T08:57:22;26.20;53.80
63371;DHT22;49504;48.336;14.472;2023-08-01T09:02:26;26.20;53.10
63371;DHT22;49504;48.336;14.472;2023-08-01T09:07:30;26.20;53.10
63371;DHT22;49504;48.336;14.472;2023-08-01T09:10:54;26.20;53.90
63371;DHT22;49504;48.336;14.472;2023-08-01T09:14:16;26.20;54.00
63371;DHT22;49504;48.336;14.472;2023-08-01T09:17:48;26.20;54.10
63371;DHT22;49504;48.336;14.472;2023-08-01T09:21:10;26.20;54.00
63371;DHT22;49504;48.336;14.472;2023-08-01T09:24:32;26.20;54.10
63371;DHT22;49504;48.336;14.472;2023-08-01T09:27:54;26.20;54.10
63371;DHT22;49504;48.336;14.472;2023-08-01T09:31:26;26.20;54.20
63371;DHT22;49504;48.336;14.472;2023-08-01T09:34:47;26.20;54.10
63371;DHT22;49504;48.336;14.472;2023-08-01T09:38:19;26.20;54.20
63371;DHT22;49504;48.336;14.472;2023-08-01T09:41:42;26.20;54.30
63371;DHT22;49504;48.336;14.472;2023-08-01T09:45:07;26.20;54.30
63371;DHT22;49504;48.336;14.472;2023-08-01T09:48:32;26.20;54.40
63371;DHT22;49504;48.336;14.472;2023-08-01T09:51:54;26.20;54.50
63371;DHT22;49504;48.336;14.472;2023-08-01T09:55:15;26.20;54.50
63371;DHT22;49504;48.336;14.472;2023-08-01T09:58:38;26.20;54.50
63371;DHT22;49504;48.336;14.472;2023-08-01T10:02:01;26.20;54.50
63371;DHT22;49504;48.336;14.472;2023-08-01T10:05:24;26.20;54.50
63371;DHT22;49504;48.336;14.472;2023-08-01T10:08:45;26.20;54.60
63371;DHT22;49504;48.336;14.472;2023-08-01T10:12:08;26.10;54.50
63371;DHT22;49504;48.336;14.472;2023-08-01T10:15:32;26.20;54.60
63371;DHT22;49504;48.336;14.472;2023-08-01T10:21:47;26.20;53.90
63371;DHT22;49504;48.336;14.472;2023-08-01T10:25:09;26.20;54.70
63371;DHT22;49504;48.336;14.472;2023-08-01T10:28:31;26.20;54.70
63371;DHT22;49504;48.336;14.472;2023-08-01T10:31:54;26.20;54.70
63371;DHT22;49504;48.336;14.472;2023-08-01T10:35:15;26.20;54.70
63371;DHT22;49504;48.336;14.472;2023-08-01T10:38:49;26.20;54.70
63371;DHT22;49504;48.336;14.472;2023-08-01T10:42:11;26.20;54.60
63371;DHT22;49504;48.336;14.472;2023-08-01T10:45:44;26.10;54.10
63371;DHT22;49504;48.336;14.472;2023-08-01T10:49:07;26.20;54.70
63371;DHT22;49504;48.336;14.472;2023-08-01T10:52:29;26.20;54.80
63371;DHT22;49504;48.336;14.472;2023-08-01T10:55:50;26.20;54.90
63371;DHT22;49504;48.336;14.472;2023-08-01T10:59:12;26.20;54.90
63371;DHT22;49504;48.336;14.472;2023-08-01T11:02:36;26.20;55.00
63371;DHT22;49504;48.336;14.472;2023-08-01T11:05:57;26.20;55.00
63371;DHT22;49504;48.336;14.472;2023-08-01T11:09:20;26.20;55.00
63371;DHT22;49504;48.336;14.472;2023-08-01T11:12:43;26.30;55.10
63371;DHT22;49504;48.336;14.472;2023-08-01T11:16:05;26.20;54.90
63371;DHT22;49504;48.336;14.472;2023-08-01T11:19:29;26.20;54.90
63371;DHT22;49504;48.336;14.472;2023-08-01T11:22:52;26.20;54.90
63371;DHT22;49504;48.336;14.472;2023-08-01T11:26:14;26.30;55.00
63371;DHT22;49504;48.336;14.472;2023-08-01T11:29:38;26.20;54.90
63371;DHT22;49504;48.336;14.472;2023-08-01T11:33:00;26.30;54.90
63371;DHT22;49504;48.336;14.472;2023-08-01T11:36:25;26.20;54.90
63371;DHT22;49504;48.336;14.472;2023-08-01T11:39:47;26.30;54.90
63371;DHT22;49504;48.336;14.472;2023-08-01T11:43:09;26.30;54.90
63371;DHT22;49504;48.336;14.472;2023-08-01T11:46:34;26.30;55.00
63371;DHT22;49504;48.336;14.472;2023-08-01T11:49:55;26.30;54.90
63371;DHT22;49504;48.336;14.472;2023-08-01T11:53:21;26.30;55.00
63371;DHT22;49504;48.336;14.472;2023-08-01T11:59:23;26.30;54.30
63371;DHT22;49504;48.336;14.472;2023-08-01T12:04:33;26.30;54.30
63371;DHT22;49504;48.336;14.472;2023-08-01T12:07:54;26.40;55.10
63371;DHT22;49504;48.336;14.472;2023-08-01T12:11:22;26.30;55.10
63371;DHT22;49504;48.336;14.472;2023-08-01T12:14:44;26.30;55.10
63371;DHT22;49504;48.336;14.472;2023-08-01T12:18:05;26.40;55.20
63371;DHT22;49504;48.336;14.472;2023-08-01T12:21:28;26.40;55.30
63371;DHT22;49504;48.336;14.472;2023-08-01T12:24:49;26.40;55.20
63371;DHT22;49504;48.336;14.472;2023-08-01T12:28:10;26.40;55.40
63371;DHT22;49504;48.336;14.472;2023-08-01T12:31:31;26.40;55.30
63371;DHT22;49504;48.336;14.472;2023-08-01T12:34:52;26.40;55.30
63371;DHT22;49504;48.336;14.472;2023-08-01T12:38:15;26.40;55.20
63371;DHT22;49504;48.336;14.472;2023-08-01T12:41:37;26.40;55.20
63371;DHT22;49504;48.336;14.472;2023-08-01T12:44:58;26.40;55.20
63371;DHT22;49504;48.336;14.472;2023-08-01T12:48:19;26.40;55.40
63371;DHT22;49504;48.336;14.472;2023-08-01T12:51:41;26.40;55.30
63371;DHT22;49504;48.336;14.472;2023-08-01T12:55:04;26.40;55.20
63371;DHT22;49504;48.336;14.472;2023-08-01T12:58:25;26.40;55.60
63371;DHT22;49504;48.336;14.472;2023-08-01T13:01:46;26.50;55.50
63371;DHT22;49504;48.336;14.472;2023-08-01T13:05:08;26.40;55.60
63371;DHT22;49504;48.336;14.472;2023-08-01T13:08:29;26.50;55.80
63371;DHT22;49504;48.336;14.472;2023-08-01T13:11:52;26.40;55.90
63371;DHT22;49504;48.336;14.472;2023-08-01T13:15:13;26.50;56.00
63371;DHT22;49504;48.336;14.472;2023-08-01T13:18:34;26.50;56.10
63371;DHT22;49504;48.336;14.472;2023-08-01T13:21:55;26.50;55.90
63371;DHT22;49504;48.336;14.472;2023-08-01T13:25:16;26.50;56.10
63371;DHT22;49504;48.336;14.472;2023-08-01T13:28:39;26.60;56.10
63371;DHT22;49504;48.336;14.472;2023-08-01T13:32:00;26.60;55.90
63371;DHT22;49504;48.336;14.472;2023-08-01T13:35:22;26.60;56.00
63371;DHT22;49504;48.336;14.472;2023-08-01T13:38:43;26.60;56.20
63371;DHT22;49504;48.336;14.472;2023-08-01T13:42:06;26.60;56.30
63371;DHT22;49504;48.336;14.472;2023-08-01T13:45:31;26.60;56.20
63371;DHT22;49504;48.336;14.472;2023-08-01T13:48:53;26.60;56.10
63371;DHT22;49504;48.336;14.472;2023-08-01T13:52:15;26.70;56.30
63371;DHT22;49504;48.336;14.472;2023-08-01T13:55:36;26.70;56.20
63371;DHT22;49504;48.336;14.472;2023-08-01T13:58:57;26.70;56.30
63371;DHT22;49504;48.336;14.472;2023-08-01T14:02:20;26.60;56.10
63371;DHT22;49504;48.336;14.472;2023-08-01T14:05:41;26.60;56.00
63371;DHT22;49504;48.336;14.472;2023-08-01T14:11:49;26.60;55.40
63371;DHT22;49504;48.336;14.472;2023-08-01T14:15:10;26.60;56.20
63371;DHT22;49504;48.336;14.472;2023-08-01T14:18:31;26.60;56.40
63371;DHT22;49504;48.336;14.472;2023-08-01T14:23:48;26.60;55.60
63371;DHT22;49504;48.336;14.472;2023-08-01T14:27:09;26.60;56.60
63371;DHT22;49504;48.336;14.472;2023-08-01T14:30:30;26.60;56.50
63371;DHT22;49504;48.336;14.472;2023-08-01T14:33:52;26.60;56.50
63371;DHT22;49504;48.336;14.472;2023-08-01T14:37:13;26.60;56.40
63371;DHT22;49504;48.336;14.472;2023-08-01T14:40:35;26.60;56.30
63371;DHT22;49504;48.336;14.472;2023-08-01T14:43:57;26.60;56.30
63371;DHT22;49504;48.336;14.472;2023-08-01T14:47:18;26.60;56.50
63371;DHT22;49504;48.336;14.472;2023-08-01T14:50:40;26.60;56.50
63371;DHT22;49504;48.336;14.472;2023-08-01T14:54:02;26.60;56.50
63371;DHT22;49504;48.336;14.472;2023-08-01T14:57:25;26.60;56.70
63371;DHT22;49504;48.336;14.472;2023-08-01T15:00:46;26.70;56.60
63371;DHT22;49504;48.336;14.472;2023-08-01T15:04:52;26.60;55.80
63371;DHT22;49504;48.336;14.472;2023-08-01T15:08:14;26.60;56.50
63371;DHT22;49504;48.336;14.472;2023-08-01T15:11:35;26.60;56.50
63371;DHT22;49504;48.336;14.472;2023-08-01T15:14:57;26.60;56.50
63371;DHT22;49504;48.336;14.472;2023-08-01T15:18:18;26.60;56.60
63371;DHT22;49504;48.336;14.472;2023-08-01T15:21:41;26.60;56.70
63371;DHT22;49504;48.336;14.472;2023-08-01T15:25:02;26.60;56.60
63371;DHT22;49504;48.336;14.472;2023-08-01T15:28:25;26.60;56.60
63371;DHT22;49504;48.336;14.472;2023-08-01T15:31:48;26.60;56.40
63371;DHT22;49504;48.336;14.472;2023-08-01T15:35:11;26.60;56.40
63371;DHT22;49504;48.336;14.472;2023-08-01T15:38:36;26.60;56.30
63371;DHT22;49504;48.336;14.472;2023-08-01T15:41:58;26.50;56.20
63371;DHT22;49504;48.336;14.472;2023-08-01T15:45:20;26.60;56.30
63371;DHT22;49504;48.336;14.472;2023-08-01T15:48:41;26.50;56.20
63371;DHT22;49504;48.336;14.472;2023-08-01T15:52:03;26.60;56.30
63371;DHT22;49504;48.336;14.472;2023-08-01T15:57:54;26.50;55.60
63371;DHT22;49504;48.336;14.472;2023-08-01T16:01:15;26.50;56.20
63371;DHT22;49504;48.336;14.472;2023-08-01T16:04:36;26.50;56.20
63371;DHT22;49504;48.336;14.472;2023-08-01T16:10:52;26.50;55.70
63371;DHT22;49504;48.336;14.472;2023-08-01T16:14:14;26.50;56.30
63371;DHT22;49504;48.336;14.472;2023-08-01T16:17:39;26.50;56.30
63371;DHT22;49504;48.336;14.472;2023-08-01T16:21:06;26.50;56.30
63371;DHT22;49504;48.336;14.472;2023-08-01T16:24:27;26.50;56.30
63371;DHT22;49504;48.336;14.472;2023-08-01T16:28:51;26.50;55.80
63371;DHT22;49504;48.336;14.472;2023-08-01T16:32:13;26.50;56.70
63371;DHT22;49504;48.336;14.472;2023-08-01T16:35:34;26.50;56.80
63371;DHT22;49504;48.336;14.472;2023-08-01T16:38:56;26.50;56.80
63371;DHT22;49504;48.336;14.472;2023-08-01T16:42:18;26.50;56.90
63371;DHT22;49504;48.336;14.472;2023-08-01T16:45:40;26.50;56.90
63371;DHT22;49504;48.336;14.472;2023-08-01T16:49:01;26.50;56.90
63371;DHT22;49504;48.336;14.472;2023-08-01T16:52:22;26.50;56.70
63371;DHT22;49504;48.336;14.472;2023-08-01T16:55:44;26.50;56.80
63371;DHT22;49504;48.336;14.472;2023-08-01T16:59:05;26.50;56.80
63371;DHT22;49504;48.336;14.472;2023-08-01T17:02:28;26.50;56.70
63371;DHT22;49504;48.336;14.472;2023-08-01T17:05:50;26.50;56.70
63371;DHT22;49504;48.336;14.472;2023-08-01T17:09:11;26.50;56.70
63371;DHT22;49504;48.336;14.472;2023-08-01T17:12:33;26.50;56.60
63371;DHT22;49504;48.336;14.472;2023-08-01T17:15:54;26.50;56.70
63371;DHT22;49504;48.336;14.472;2023-08-01T17:19:17;26.50;56.70
63371;DHT22;49504;48.336;14.472;2023-08-01T17:22:38;26.60;56.90
63371;DHT22;49504;48.336;14.472;2023-08-01T17:25:59;26.50;56.90
63371;DHT22;49504;48.336;14.472;2023-08-01T17:32:15;26.50;56.20
63371;DHT22;49504;48.336;14.472;2023-08-01T17:35:36;26.50;56.90
63371;DHT22;49504;48.336;14.472;2023-08-01T17:38:57;26.50;57.00
63371;DHT22;49504;48.336;14.472;2023-08-01T17:42:18;26.50;57.10
63371;DHT22;49504;48.336;14.472;2023-08-01T17:45:39;26.50;57.10
63371;DHT22;49504;48.336;14.472;2023-08-01T17:49:02;26.50;57.20
63371;DHT22;49504;48.336;14.472;2023-08-01T17:52:23;26.50;57.20
63371;DHT22;49504;48.336;14.472;2023-08-01T17:55:44;26.50;57.20
63371;DHT22;49504;48.336;14.472;2023-08-01T17:59:05;26.50;57.30
63371;DHT22;49504;48.336;14.472;2023-08-01T18:02:26;26.50;57.10
63371;DHT22;49504;48.336;14.472;2023-08-01T18:05:49;26.50;57.10
63371;DHT22;49504;48.336;14.472;2023-08-01T18:09:10;26.50;57.10
63371;DHT22;49504;48.336;14.472;2023-08-01T18:12:31;26.50;57.00
63371;DHT22;49504;48.336;14.472;2023-08-01T18:15:52;26.50;57.10
63371;DHT22;49504;48.336;14.472;2023-08-01T18:19:14;26.50;57.10
63371;DHT22;49504;48.336;14.472;2023-08-01T18:22:36;26.50;57.20
63371;DHT22;49504;48.336;14.472;2023-08-01T18:27:34;26.50;56.60
63371;DHT22;49504;48.336;14.472;2023-08-01T18:32:41;26.50;56.60
63371;DHT22;49504;48.336;14.472;2023-08-01T18:36:03;26.50;57.50
63371;DHT22;49504;48.336;14.472;2023-08-01T18:39:25;26.50;57.50
63371;DHT22;49504;48.336;14.472;2023-08-01T18:42:47;26.50;57.40
63371;DHT22;49504;48.336;14.472;2023-08-01T18:49:36;26.50;57.00
63371;DHT22;49504;48.336;14.472;2023-08-01T18:52:57;26.50;57.60
63371;DHT22;49504;48.336;14.472;2023-08-01T18:56:18;26.50;57.60
63371;DHT22;49504;48.336;14.472;2023-08-01T18:59:39;26.50;57.60
63371;DHT22;49504;48.336;14.472;2023-08-01T19:03:00;26.60;57.70
63371;DHT22;49504;48.336;14.472;2023-08-01T19:06:24;26.60;57.70
63371;DHT22;49504;48.336;14.472;2023-08-01T19:10:36;26.60;57.00
63371;DHT22;49504;48.336;14.472;2023-08-01T19:13:58;26.60;57.80
63371;DHT22;49504;48.336;14.472;2023-08-01T19:17:19;26.60;57.90
63371;DHT22;49504;48.336;14.472;2023-08-01T19:20:40;26.60;57.90
63371;DHT22;49504;48.336;14.472;2023-08-01T19:24:02;26.60;57.90
63371;DHT22;49504;48.336;14.472;2023-08-01T19:27:24;26.60;57.90
63371;DHT22;49504;48.336;14.472;2023-08-01T19:30:47;26.60;58.00
63371;DHT22;49504;48.336;14.472;2023-08-01T19:34:08;26.60;58.00
63371;DHT22;49504;48.336;14.472;2023-08-01T19:37:29;26.60;58.10
63371;DHT22;49504;48.336;14.472;2023-08-01T19:40:50;26.60;58.00
63371;DHT22;49504;48.336;14.472;2023-08-01T19:44:13;26.60;58.10
63371;DHT22;49504;48.336;14.472;2023-08-01T19:47:36;26.60;58.10
63371;DHT22;49504;48.336;14.472;2023-08-01T19:50:57;26.60;58.10
63371;DHT22;49504;48.336;14.472;2023-08-01T19:54:18;26.60;58.10
63371;DHT22;49504;48.336;14.472;2023-08-01T19:58:44;26.60;57.40
63371;DHT22;49504;48.336;14.472;2023-08-01T20:02:05;26.60;58.20
63371;DHT22;49504;48.336;14.472;2023-08-01T20:05:26;26.60;58.10
63371;DHT22;49504;48.336;14.472;2023-08-01T20:08:48;26.60;58.10
63371;DHT22;49504;48.336;14.472;2023-08-01T20:12:09;26.60;58.10
63371;DHT22;49504;48.336;14.472;2023-08-01T20:15:31;26.60;58.10
63371;DHT22;49504;48.336;14.472;2023-08-01T20:18:53;26.60;58.20
63371;DHT22;49504;48.336;14.472;2023-08-01T20:22:14;26.60;58.10
63371;DHT22;49504;48.336;14.472;2023-08-01T20:25:35;26.60;58.00
63371;DHT22;49504;48.336;14.472;2023-08-01T20:28:56;26.60;58.00
63371;DHT22;49504;48.336;14.472;2023-08-01T20:32:18;26.60;58.00
63371;DHT22;49504;48.336;14.472;2023-08-01T20:35:39;26.60;58.00
63371;DHT22;49504;48.336;14.472;2023-08-01T20:39:01;26.60;57.90
63371;DHT22;49504;48.336;14.472;2023-08-01T20:42:23;26.70;58.00
63371;DHT22;49504;48.336;14.472;2023-08-01T20:45:44;26.70;58.10
63371;DHT22;49504;48.336;14.472;2023-08-01T20:49:07;26.70;58.00
63371;DHT22;49504;48.336;14.472;2023-08-01T20:52:28;26.70;58.00
63371;DHT22;49504;48.336;14.472;2023-08-01T20:55:49;26.70;58.00
63371;DHT22;49504;48.336;14.472;2023-08-01T21:01:57;26.60;57.30
63371;DHT22;49504;48.336;14.472;2023-08-01T21:05:19;26.70;58.00
63371;DHT22;49504;48.336;14.472;2023-08-01T21:08:40;26.70;57.90
63371;DHT22;49504;48.336;14.472;2023-08-01T21:12:01;26.60;57.80
63371;DHT22;49504;48.336;14.472;2023-08-01T21:15:24;26.60;57.80
63371;DHT22;49504;48.336;14.472;2023-08-01T21:18:47;26.60;57.80
63371;DHT22;49504;48.336;14.472;2023-08-01T21:22:08;26.70;57.90
63371;DHT22;49504;48.336;14.472;2023-08-01T21:25:30;26.70;57.80
63371;DHT22;49504;48.336;14.472;2023-08-01T21:28:51;26.60;57.80
63371;DHT22;49504;48.336;14.472;2023-08-01T21:32:12;26.60;57.80
63371;DHT22;49504;48.336;14.472;2023-08-01T21:35:34;26.60;57.80
63371;DHT22;49504;48.336;14.472;2023-08-01T21:40:06;26.60;57.20
63371;DHT22;49504;48.336;14.472;2023-08-01T21:43:28;26.60;57.80
63371;DHT22;49504;48.336;14.472;2023-08-01T21:46:49;26.60;57.80
63371;DHT22;49504;48.336;14.472;2023-08-01T21:50:10;26.60;57.80
63371;DHT22;49504;48.336;14.472;2023-08-01T21:53:32;26.60;57.80
63371;DHT22;49504;48.336;14.472;2023-08-01T21:56:55;26.60;57.80
63371;DHT22;49504;48.336;14.472;2023-08-01T22:00:16;26.60;57.90